Time;durP1;ratioP1;P1;durP2;ratioP2;P2;SDS_P1;SDS_P2;PMS_P1;PMS_P2;Temp;Humidity;BMP_temperature;BMP_pressure;BME280_temperature;BME280_humidity;BME280_pressure;Samples;Min_cycle;Max_cycle;Signal;HPM_P1;HPM_P2
2022/01/26 01:55:48;;;;;;;;;;;;;;;;;;;;;
2022/01/26 02:09:21;;;;;;;;;;;;;;;;;;;;;
2022/01/26 03:05:15;;;;;;;53.25;31.75;;;2.20;99.90;;;;;;4940028;28;20040;-82
2022/01/26 03:08:58;;;;;;;;;;;;;;;;;;;;;
2022/01/26 03:12:03;;;;;;;54.67;30.10;;;2.20;99.90;;;;;;4838669;29;20034;-82
2022/01/26 03:19:32;;;;;;;;;;;;;;;;;;;;;
2022/01/26 04:39:32;;;;;;;47.40;29.08;;;2.30;99.90;;;;;;4786573;29;20620;-81
2022/01/26 04:55:35;;;;;;;45.40;27.25;;;2.20;99.90;;;;;;4911641;29;20043;-81
2022/01/26 04:58:41;;;;;;;;;;;;;;;;;;;;;
2022/01/26 05:05:00;;;;;;;44.20;27.10;;;2.30;99.90;;;;;;4987770;28;20080;-80
2022/01/26 05:18:32;;;;;;;38.70;23.90;;;2.20;99.90;;;;;;5036549;28;20496;-81
2022/01/26 05:21:43;;;;;;;45.83;23.88;;;2.20;99.90;;;;;;4982597;28;20042;-81
2022/01/26 05:28:20;;;;;;;34.85;22.23;;;2.20;99.90;;;;;;4987089;28;20041;-82
2022/01/26 05:31:06;;;;;;;31.67;21.23;;;2.10;99.90;;;;;;5035476;28;20037;-81
2022/01/26 05:33:59;;;;;;;36.35;22.30;;;2.20;99.90;;;;;;5036190;28;20126;-81
2022/01/26 05:36:33;;;;;;;39.70;21.60;;;2.10;99.90;;;;;;5031115;28;20561;-82
2022/01/26 05:42:10;;;;;;;36.38;21.95;;;2.10;99.90;;;;;;5102945;27;20112;-81
2022/01/26 05:48:18;;;;;;;;;;;2.10;99.90;;;;;;5019969;28;20555;-81
2022/01/26 05:54:31;;;;;;;37.17;19.30;;;2.10;99.90;;;;;;4984502;28;20088;-81
2022/01/26 05:57:33;;;;;;;31.63;18.33;;;2.10;99.90;;;;;;4980485;28;20061;-82
2022/01/26 06:00:03;;;;;;;30.67;18.75;;;2.10;99.90;;;;;;4971400;28;20513;-81
2022/01/26 06:02:52;;;;;;;29.00;18.13;;;2.10;99.90;;;;;;4978846;28;20509;-80
2022/01/26 06:05:24;;;;;;;30.10;18.25;;;2.10;99.90;;;;;;5026987;28;20052;-81
2022/01/26 06:07:51;;;;;;;30.80;19.63;;;2.10;99.90;;;;;;5076186;28;20045;-81
2022/01/26 06:10:20;;;;;;;34.33;19.98;;;2.10;99.90;;;;;;5077625;28;20033;-81
2022/01/26 06:12:52;;;;;;;29.33;17.73;;;2.00;99.90;;;;;;5063812;28;20776;-82
2022/01/26 06:18:25;;;;;;;34.40;17.45;;;2.10;99.90;;;;;;5066781;28;20044;-81
2022/01/26 06:20:50;;;;;;;26.42;17.30;;;2.20;99.90;;;;;;5091154;27;20027;-82
2022/01/26 06:23:46;;;;;;;26.85;18.52;;;2.20;99.90;;;;;;5103196;27;20749;-81
2022/01/26 06:29:26;;;;;;;;;;;;;;;;;;;;;
2022/01/26 06:32:01;;;;;;;27.85;18.67;;;2.20;99.90;;;;;;5117512;27;20033;-81
2022/01/26 06:34:31;;;;;;;31.27;18.63;;;2.20;99.90;;;;;;5137251;27;20081;-81
2022/01/26 06:37:00;;;;;;;28.50;20.40;;;2.20;99.90;;;;;;5121578;27;20027;-81
2022/01/26 06:39:32;;;;;;;29.27;19.05;;;2.30;99.90;;;;;;5140428;27;20031;-81
2022/01/26 06:42:11;;;;;;;28.88;18.02;;;2.30;99.90;;;;;;5125390;27;20114;-82
2022/01/26 06:44:47;;;;;;;28.90;18.13;;;2.30;99.90;;;;;;5144946;27;20114;-82
2022/01/26 06:49:48;;;;;;;27.80;18.38;;;2.30;99.90;;;;;;5144406;27;20484;-84
2022/01/26 06:52:14;;;;;;;27.83;18.23;;;2.40;99.90;;;;;;5126692;27;20109;-83
2022/01/26 06:54:43;;;;;;;28.73;18.80;;;2.30;99.90;;;;;;5120703;27;20880;-83
2022/01/26 06:57:12;;;;;;;26.52;17.98;;;2.40;99.90;;;;;;5137908;27;20027;-84
2022/01/26 06:59:55;;;;;;;28.95;19.95;;;2.50;99.90;;;;;;5145655;27;20027;-84
2022/01/26 07:02:21;;;;;;;26.95;18.77;;;2.50;99.90;;;;;;5139007;27;20432;-82
2022/01/26 07:04:50;;;;;;;28.83;18.02;;;2.50;99.90;;;;;;5136568;27;20072;-82
2022/01/26 07:07:25;;;;;;;29.17;17.67;;;2.60;99.90;;;;;;5131252;27;20039;-83
2022/01/26 07:09:59;;;;;;;31.02;17.48;;;2.70;99.90;;;;;;5117654;27;20275;-83
2022/01/26 07:12:50;;;;;;;;;;;;;;;;;;;;;
2022/01/26 07:24:19;;;;;;;27.55;17.00;;;3.20;99.90;;;;;;5033468;28;20519;-82
2022/01/26 07:26:46;;;;;;;25.90;17.45;;;3.20;99.90;;;;;;5058096;28;20040;-82
2022/01/26 07:29:14;;;;;;;29.27;17.25;;;3.30;99.90;;;;;;5091172;27;20091;-82
2022/01/26 07:31:46;;;;;;;27.92;17.08;;;3.30;99.90;;;;;;5135790;27;20015;-82
2022/01/26 07:34:27;;;;;;;24.63;16.73;;;3.40;99.90;;;;;;5135765;27;20082;-82
2022/01/26 07:36:59;;;;;;;26.45;16.92;;;3.40;99.90;;;;;;5136398;27;20380;-82
2022/01/26 07:39:42;;;;;;;30.33;17.38;;;3.40;99.90;;;;;;5139855;27;20019;-82
2022/01/26 07:42:24;;;;;;;26.88;16.23;;;3.50;99.90;;;;;;5144295;27;20023;-83
2022/01/26 07:44:56;;;;;;;27.25;18.20;;;3.60;99.90;;;;;;5138381;27;20541;-81
2022/01/26 07:47:31;;;;;;;29.50;17.37;;;3.60;99.90;;;;;;5135621;27;20047;-82
2022/01/26 07:50:00;;;;;;;26.85;17.02;;;3.60;99.90;;;;;;5136165;27;20489;-82
2022/01/26 07:52:36;;;;;;;27.90;17.75;;;3.70;99.90;;;;;;5120716;27;20027;-82
2022/01/26 07:55:09;;;;;;;28.45;16.50;;;3.70;99.90;;;;;;5138546;27;20007;-82
2022/01/26 07:57:43;;;;;;;23.13;17.08;;;3.80;99.90;;;;;;5139951;27;20019;-81
2022/01/26 08:00:32;;;;;;;25.25;16.17;;;3.90;99.90;;;;;;5133419;27;20080;-82
2022/01/26 08:03:04;;;;;;;24.17;16.17;;;4.00;99.90;;;;;;5136683;27;20026;-81
2022/01/26 08:05:30;;;;;;;23.85;16.58;;;4.00;99.90;;;;;;5138450;27;20027;-82
2022/01/26 08:08:01;;;;;;;25.27;16.77;;;4.10;99.90;;;;;;5124964;27;20038;-82
2022/01/26 08:10:27;;;;;;;28.35;17.67;;;4.20;99.90;;;;;;5117997;27;20473;-82
2022/01/26 08:13:03;;;;;;;28.70;17.75;;;4.30;99.90;;;;;;5123432;27;20083;-83
2022/01/26 08:15:34;;;;;;;25.20;16.45;;;4.30;99.90;;;;;;5121290;27;20441;-83
2022/01/26 08:18:03;;;;;;;28.38;17.90;;;4.40;99.90;;;;;;5120525;27;20019;-82
2022/01/26 08:20:29;;;;;;;23.52;16.70;;;4.50;99.90;;;;;;5136787;27;20051;-83
2022/01/26 08:22:56;;;;;;;31.15;15.68;;;4.50;99.90;;;;;;5141412;27;20062;-83
2022/01/26 08:25:28;;;;;;;25.15;15.82;;;4.60;99.90;;;;;;5119358;27;20064;-84
2022/01/26 08:28:25;;;;;;;23.02;16.17;;;4.60;99.90;;;;;;5140377;27;20106;-89
2022/01/26 08:30:51;;;;;;;21.42;15.27;;;4.70;99.90;;;;;;5118832;27;20075;-85
2022/01/26 08:33:17;;;;;;;27.30;16.27;;;4.80;99.90;;;;;;5141814;27;20039;-85
2022/01/26 08:35:46;;;;;;;21.33;15.95;;;4.90;99.90;;;;;;5139396;27;20070;-86
2022/01/26 08:38:12;;;;;;;24.90;15.93;;;4.90;99.90;;;;;;5135489;27;20148;-85
2022/01/26 08:40:38;;;;;;;26.65;16.50;;;5.00;99.90;;;;;;5107672;27;20034;-85
2022/01/26 08:43:07;;;;;;;28.65;15.48;;;5.10;99.90;;;;;;5140981;27;20030;-85
2022/01/26 08:45:40;;;;;;;24.70;15.70;;;5.10;99.90;;;;;;5140756;27;20027;-85
2022/01/26 08:48:12;;;;;;;25.40;14.93;;;5.20;99.90;;;;;;5120017;27;20035;-84
2022/01/26 08:50:38;;;;;;;21.90;14.25;;;5.20;99.90;;;;;;5125477;27;20035;-84
2022/01/26 08:53:04;;;;;;;25.67;14.77;;;5.30;99.90;;;;;;5130949;27;20027;-84
2022/01/26 08:55:31;;;;;;;22.77;15.63;;;5.40;99.90;;;;;;5141049;27;20054;-85
2022/01/26 08:58:06;;;;;;;22.63;15.07;;;5.50;99.90;;;;;;5132481;27;20046;-84
2022/01/26 09:00:37;;;;;;;25.30;15.32;;;5.50;99.90;;;;;;5135505;27;20022;-84
2022/01/26 09:03:03;;;;;;;21.55;14.70;;;5.60;99.90;;;;;;5125670;27;20030;-84
2022/01/26 09:05:32;;;;;;;25.00;14.43;;;5.70;99.90;;;;;;5117002;27;20122;-84
2022/01/26 09:07:59;;;;;;;19.42;13.77;;;5.70;99.90;;;;;;5122831;27;20050;-84
2022/01/26 09:10:27;;;;;;;20.83;14.45;;;5.80;99.90;;;;;;5128923;27;20023;-84
2022/01/26 09:12:53;;;;;;;21.55;14.20;;;5.90;99.90;;;;;;5114587;27;20034;-84
2022/01/26 09:15:26;;;;;;;22.55;14.23;;;6.00;99.90;;;;;;5145285;27;20034;-84
2022/01/26 09:17:52;;;;;;;;;;;6.10;99.90;;;;;;5137921;27;20027;-85
2022/01/26 09:20:18;;;;;;;24.70;14.43;;;6.20;99.90;;;;;;5133626;27;19956;-85
2022/01/26 09:22:44;;;;;;;23.35;14.18;;;6.30;99.90;;;;;;5120447;27;20053;-86
2022/01/26 09:25:13;;;;;;;24.35;13.50;;;6.40;99.90;;;;;;5119361;27;20030;-84
2022/01/26 09:27:39;;;;;;;19.20;13.02;;;6.50;99.90;;;;;;5142266;27;20054;-85
2022/01/26 09:30:05;;;;;;;21.50;13.80;;;6.60;99.90;;;;;;5122946;27;20043;-85
2022/01/26 09:32:31;;;;;;;17.38;12.63;;;6.70;99.90;;;;;;5138042;27;20027;-84
2022/01/26 09:34:57;;;;;;;23.65;14.32;;;6.80;99.90;;;;;;5133995;27;20442;-85
2022/01/26 09:37:30;;;;;;;18.45;13.30;;;6.90;99.90;;;;;;5121298;27;20362;-85
2022/01/26 09:40:02;;;;;;;25.10;14.82;;;6.90;99.90;;;;;;5126465;27;20053;-85
2022/01/26 09:42:28;;;;;;;20.30;14.43;;;7.00;99.90;;;;;;5138230;27;20035;-85
2022/01/26 09:44:54;;;;;;;21.83;13.85;;;7.10;99.90;;;;;;5138018;27;20049;-85
2022/01/26 09:47:21;;;;;;;20.35;12.95;;;7.10;99.90;;;;;;5119812;27;20039;-85
2022/01/26 09:49:49;;;;;;;20.20;14.20;;;7.20;99.90;;;;;;5139124;27;20043;-84
2022/01/26 09:52:34;;;;;;;17.48;12.73;;;7.30;99.90;;;;;;5124075;27;20031;-85
2022/01/26 09:55:12;;;;;;;23.00;12.88;;;7.40;99.90;;;;;;5140223;27;20434;-84
2022/01/26 09:57:53;;;;;;;17.75;12.95;;;7.40;99.90;;;;;;5140595;27;20101;-84
2022/01/26 10:00:19;;;;;;;19.80;13.90;;;7.50;99.90;;;;;;5118742;27;20023;-85
2022/01/26 10:03:03;;;;;;;24.15;16.10;;;7.60;99.90;;;;;;5116937;27;20541;-85
2022/01/26 10:05:49;;;;;;;21.80;15.27;;;7.80;99.90;;;;;;5133179;27;20116;-84
2022/01/26 10:08:49;;;;;;;30.35;17.35;;;7.90;99.90;;;;;;5142079;27;20034;-85
2022/01/26 10:19:07;;;;;;;27.02;17.95;;;8.40;99.90;;;;;;5135965;27;20030;-84
2022/01/26 10:21:43;;;;;;;27.30;17.80;;;8.60;99.90;;;;;;5116715;27;20461;-85
2022/01/26 10:24:10;;;;;;;29.45;18.92;;;8.60;99.90;;;;;;5121337;27;20465;-85
2022/01/26 10:26:36;;;;;;;37.47;21.15;;;8.50;99.90;;;;;;5119156;27;20035;-85
2022/01/26 10:29:17;;;;;;;45.33;23.10;;;8.40;99.90;;;;;;5128472;27;20102;-84
2022/01/26 10:31:43;;;;;;;36.78;23.77;;;8.30;99.90;;;;;;5140313;27;20029;-83
2022/01/26 10:34:15;;;;;;;35.30;23.48;;;8.40;99.90;;;;;;5136808;27;20479;-84
2022/01/26 10:36:48;;;;;;;35.28;22.23;;;8.50;99.90;;;;;;5124476;27;20073;-84
2022/01/26 10:39:37;;;;;;;32.92;21.48;;;8.50;99.90;;;;;;5118025;27;20076;-84
2022/01/26 10:42:11;;;;;;;36.63;20.40;;;8.50;99.90;;;;;;5134183;27;20024;-84
2022/01/26 10:47:34;;;;;;;29.85;18.52;;;8.60;99.90;;;;;;5136401;27;20031;-85
2022/01/26 10:50:31;;;;;;;27.15;18.90;;;8.70;99.90;;;;;;5122373;27;20113;-84
2022/01/26 10:53:08;;;;;;;29.38;18.92;;;8.90;99.90;;;;;;5142536;27;20035;-84
2022/01/26 10:55:39;;;;;;;25.48;18.17;;;8.90;99.90;;;;;;5116297;27;20019;-84
2022/01/26 10:58:09;;;;;;;30.85;19.02;;;9.00;99.90;;;;;;5117368;27;20035;-84
2022/01/26 11:01:17;;;;;;;28.77;19.15;;;8.90;99.90;;;;;;5120778;27;20026;-84
2022/01/26 11:03:46;;;;;;;39.45;21.90;;;8.60;99.90;;;;;;5140297;27;20039;-84
2022/01/26 11:06:18;;;;;;;39.03;20.80;;;8.50;99.90;;;;;;5122859;27;20122;-85
2022/01/26 11:08:44;;;;;;;37.93;22.27;;;8.40;99.90;;;;;;5138888;27;20039;-83
2022/01/26 11:11:29;;;;;;;36.42;21.58;;;8.00;99.90;;;;;;5127477;27;20618;-84
2022/01/26 11:14:01;;;;;;;36.50;22.67;;;7.90;99.90;;;;;;5121281;27;20026;-88
2022/01/26 11:16:36;;;;;;;32.58;21.48;;;7.90;99.90;;;;;;5138419;27;20585;-84
2022/01/26 11:19:13;;;;;;;40.83;24.02;;;7.70;99.90;;;;;;5121810;27;20037;-86
2022/01/26 11:21:40;;;;;;;37.15;22.75;;;7.50;99.90;;;;;;5147988;27;20011;-84
2022/01/26 11:24:18;;;;;;;40.95;25.33;;;7.50;99.90;;;;;;5136611;27;20027;-92
2022/01/26 11:26:46;;;;;;;43.47;24.38;;;7.40;99.90;;;;;;5128967;27;20054;-84
2022/01/26 11:29:17;;;;;;;37.70;24.50;;;7.30;99.90;;;;;;5139120;27;20027;-83
2022/01/26 11:31:43;;;;;;;34.70;23.33;;;7.30;99.90;;;;;;5112371;27;20036;-83
2022/01/26 11:34:10;;;;;;;39.20;22.30;;;7.20;99.90;;;;;;5145322;27;20051;-83
2022/01/26 11:36:41;;;;;;;32.05;22.50;;;7.20;99.90;;;;;;5142582;27;20050;-83
2022/01/26 11:42:23;;;;;;;38.05;23.40;;;7.40;99.90;;;;;;5133025;27;20053;-82
2022/01/26 11:45:06;;;;;;;35.42;21.95;;;7.50;99.90;;;;;;5138194;27;20599;-82
2022/01/26 11:47:37;;;;;;;33.60;21.88;;;7.50;99.90;;;;;;5137641;27;20038;-82
2022/01/26 11:50:14;;;;;;;34.30;22.80;;;7.60;99.90;;;;;;5140660;27;20023;-82
2022/01/26 11:53:10;;;;;;;36.45;21.83;;;7.60;99.90;;;;;;5145944;27;20019;-82
2022/01/26 11:55:49;;;;;;;34.78;22.23;;;7.60;99.90;;;;;;5118011;27;20513;-82
2022/01/26 11:58:18;;;;;;;27.38;19.63;;;7.60;99.90;;;;;;5141797;27;20023;-82
2022/01/26 12:01:07;;;;;;;28.75;19.90;;;7.60;99.90;;;;;;5145217;27;20607;-82
2022/01/26 12:03:36;;;;;;;27.25;19.58;;;7.40;99.90;;;;;;5143256;27;20029;-82
2022/01/26 12:06:02;;;;;;;28.40;19.98;;;7.30;99.90;;;;;;5141547;27;20115;-82
2022/01/26 12:08:29;;;;;;;33.28;20.08;;;7.50;99.90;;;;;;5122961;27;20041;-81
2022/01/26 12:10:55;;;;;;;30.67;18.73;;;7.50;99.90;;;;;;5139200;27;20018;-82
2022/01/26 12:13:26;;;;;;;33.83;19.67;;;7.50;99.90;;;;;;5119362;27;20045;-82
2022/01/26 12:15:56;;;;;;;29.08;18.30;;;7.60;99.90;;;;;;5135552;27;20045;-82
2022/01/26 12:32:21;;;;;;;29.30;19.27;;;8.10;99.90;;;;;;5133890;27;20660;-83
2022/01/26 12:35:07;;;;;;;22.52;16.75;;;8.30;99.90;;;;;;5123330;27;20166;-83
2022/01/26 12:38:31;;;;;;;25.30;17.67;;;9.10;99.90;;;;;;5138506;27;20031;-83
2022/01/26 12:43:15;;;;;;;31.13;17.65;;;12.50;99.90;;;;;;5141012;27;20029;-82
2022/01/26 12:45:40;;;;;;;27.48;16.20;;;14.10;99.90;;;;;;5141857;27;20015;-82
2022/01/26 12:48:09;;;;;;;23.70;16.63;;;14.40;99.90;;;;;;5143233;27;20045;-83
2022/01/26 12:50:38;;;;;;;25.27;17.55;;;14.30;99.90;;;;;;5122876;27;20027;-83
2022/01/26 12:53:05;;;;;;;23.30;16.77;;;14.00;99.50;;;;;;5125790;27;20046;-82
2022/01/26 12:55:52;;;;;;;22.63;16.67;;;13.90;99.80;;;;;;5140337;27;20023;-83
2022/01/26 12:58:35;;;;;;;24.85;17.17;;;14.20;99.40;;;;;;5140440;27;20019;-83
2022/01/26 13:01:02;;;;;;;23.85;16.17;;;14.40;98.00;;;;;;5147574;27;20070;-83
2022/01/26 13:03:37;;;;;;;29.38;18.38;;;15.00;96.40;;;;;;5122204;27;20602;-82
2022/01/26 13:06:06;;;;;;;24.10;17.40;;;14.90;96.10;;;;;;5120532;27;20034;-83
2022/01/26 13:08:47;;;;;;;24.25;16.70;;;15.10;96.10;;;;;;5143500;27;20065;-83
2022/01/26 13:11:22;;;;;;;22.23;16.25;;;15.00;95.60;;;;;;5135363;27;20023;-83
2022/01/26 13:13:48;;;;;;;22.85;16.50;;;15.80;94.50;;;;;;5143238;27;20054;-83
2022/01/26 13:16:19;;;;;;;24.05;17.13;;;16.10;93.10;;;;;;5139534;27;20504;-83
2022/01/26 13:21:40;;;;;;;26.48;18.20;;;16.10;91.00;;;;;;5139428;27;20480;-84
2022/01/26 13:24:26;;;;;;;23.52;16.90;;;15.40;91.20;;;;;;5136796;27;20038;-83
2022/01/26 13:27:32;;;;;;;28.50;19.23;;;15.50;91.60;;;;;;5124288;27;20069;-83
2022/01/26 13:29:57;;;;;;;27.33;17.63;;;16.00;90.20;;;;;;5134857;27;20125;-83
2022/01/26 13:40:24;;;;;;;29.48;19.08;;;16.20;85.40;;;;;;5134017;27;20381;-84
2022/01/26 13:51:05;;;;;;;26.73;17.23;;;16.80;83.20;;;;;;5154228;27;20027;-83
2022/01/26 13:54:29;;;;;;;28.35;18.23;;;17.60;83.00;;;;;;5124500;27;20497;-82
2022/01/26 13:56:39;;;;;;;31.20;18.88;;;18.50;76.50;;;;;;5128896;27;20035;-83
2022/01/26 14:01:37;;;;;;;25.40;19.02;;;20.50;69.60;;;;;;5145680;27;20111;-82
2022/01/26 14:04:05;;;;;;;26.80;17.83;;;20.90;65.80;;;;;;5127439;27;20388;-87
2022/01/26 14:06:36;;;;;;;24.58;19.27;;;21.00;64.30;;;;;;5146565;27;20075;-86
2022/01/26 14:09:02;;;;;;;28.40;19.30;;;21.20;62.80;;;;;;5148085;27;20043;-83
2022/01/26 14:11:28;;;;;;;29.65;21.10;;;20.30;62.80;;;;;;5121305;27;20529;-83
2022/01/26 14:13:55;;;;;;;34.78;19.70;;;19.10;65.40;;;;;;5144906;27;20110;-83
2022/01/26 14:16:22;;;;;;;27.88;18.80;;;17.90;68.80;;;;;;5147473;27;20143;-80
2022/01/26 14:19:13;;;;;;;28.27;18.73;;;16.90;72.20;;;;;;5137169;27;20022;-81
2022/01/26 14:26:53;;;;;;;31.58;18.65;;;17.40;72.50;;;;;;5143318;27;20484;-80
2022/01/26 14:39:33;;;;;;;28.23;19.70;;;13.50;82.10;;;;;;5143298;27;20015;-86
2022/01/26 15:19:24;;;;;;;35.03;23.50;;;8.20;99.90;;;;;;5142041;27;20034;-80
2022/01/26 15:30:24;;;;;;;42.05;26.88;;;7.90;99.90;;;;;;5147460;27;20126;-82
2022/01/26 15:41:51;;;;;;;47.33;30.02;;;7.40;99.90;;;;;;5128367;27;20385;-82
2022/01/26 15:44:40;;;;;;;53.17;30.23;;;7.20;99.90;;;;;;5143195;27;20019;-81
2022/01/26 15:49:55;;;;;;;58.03;33.83;;;6.80;99.90;;;;;;5140407;27;20073;-81
2022/01/26 15:57:54;;;;;;;62.97;34.85;;;6.50;99.90;;;;;;5138952;27;20077;-81
2022/01/26 16:06:01;;;;;;;56.85;34.53;;;6.20;99.90;;;;;;5136378;27;20077;-80
2022/01/26 16:12:40;;;;;;;60.38;36.00;;;6.10;99.90;;;;;;5139686;27;20031;-84
2022/01/26 16:17:16;;;;;;;57.45;36.67;;;6.00;99.90;;;;;;5136083;27;20034;-81
2022/01/26 16:20:05;;;;;;;59.40;38.03;;;5.90;99.90;;;;;;5140258;27;20019;-83
2022/01/26 16:37:01;;;;;;;58.78;36.92;;;5.70;99.90;;;;;;5137099;27;20046;-82
2022/01/26 16:39:09;;;;;;;60.30;36.35;;;5.70;99.90;;;;;;5142135;27;20058;-87
2022/01/26 18:50:44;;;;;;;113.22;57.45;;;3.50;99.90;;;;;;5140490;27;20025;-84
2022/01/26 18:53:11;;;;;;;97.68;49.78;;;3.50;99.90;;;;;;5117370;27;20029;-85
2022/01/26 18:55:37;;;;;;;124.60;66.40;;;3.50;99.90;;;;;;5119594;27;20046;-85
2022/01/26 18:58:04;;;;;;;89.07;52.17;;;3.50;99.90;;;;;;5122130;27;20474;-83
2022/01/26 19:00:31;;;;;;;105.90;53.30;;;3.50;99.90;;;;;;5140106;27;20083;-84
2022/01/26 19:02:59;;;;;;;74.88;47.60;;;3.40;99.90;;;;;;5137002;27;20048;-84
2022/01/26 19:05:25;;;;;;;72.72;44.42;;;3.40;99.90;;;;;;5146368;27;20031;-84
2022/01/26 19:07:53;;;;;;;62.05;39.33;;;3.40;99.90;;;;;;5136084;27;20059;-84
2022/01/26 19:10:26;;;;;;;88.75;50.45;;;3.30;99.90;;;;;;5135559;27;20122;-84
2022/01/26 19:12:52;;;;;;;79.00;47.17;;;3.30;99.90;;;;;;5142472;27;20027;-84
2022/01/26 19:15:24;;;;;;;74.07;46.22;;;3.20;99.90;;;;;;5120358;27;20079;-84
2022/01/26 19:18:03;;;;;;;63.60;44.40;;;3.20;99.90;;;;;;5118039;27;20080;-87
2022/01/26 19:23:41;;;;;;;75.45;46.72;;;3.10;99.90;;;;;;5119396;27;20034;-83
2022/01/26 19:26:13;;;;;;;88.00;51.72;;;3.00;99.90;;;;;;5142938;27;20026;-83
2022/01/26 19:28:44;;;;;;;101.93;55.20;;;3.00;99.90;;;;;;5127664;27;20058;-84
2022/01/26 19:45:11;;;;;;;67.88;40.15;;;3.10;99.90;;;;;;5104390;27;20043;-83
2022/01/26 19:53:03;;;;;;;87.15;48.75;;;2.90;99.90;;;;;;5136029;27;20023;-83
2022/01/26 19:55:32;;;;;;;78.82;47.42;;;2.90;99.90;;;;;;5117477;27;20035;-84
2022/01/26 19:58:01;;;;;;;86.80;48.67;;;3.00;99.90;;;;;;5144374;27;20022;-82
2022/01/26 20:00:29;;;;;;;65.07;41.55;;;3.00;99.90;;;;;;5135654;27;20027;-83
2022/01/26 20:03:04;;;;;;;73.75;42.65;;;3.00;99.90;;;;;;5120171;27;20437;-85
2022/01/26 20:05:34;;;;;;;69.88;40.78;;;3.10;99.90;;;;;;5141566;27;20023;-82
2022/01/26 20:08:08;;;;;;;61.63;40.20;;;3.10;99.90;;;;;;5125877;27;20035;-83
2022/01/26 20:11:00;;;;;;;69.68;40.88;;;3.10;99.90;;;;;;5134766;27;20501;-83
2022/01/26 20:13:30;;;;;;;62.38;38.92;;;3.00;99.90;;;;;;5122528;27;20035;-83
2022/01/26 20:16:04;;;;;;;66.07;40.80;;;3.00;99.90;;;;;;5120197;27;20553;-84
2022/01/26 20:18:30;;;;;;;63.00;39.13;;;3.00;99.90;;;;;;5139339;27;20026;-83
2022/01/26 20:20:59;;;;;;;268.77;157.00;;;3.00;99.90;;;;;;5128077;27;20022;-84
2022/01/26 20:23:48;;;;;;;176.20;94.75;;;3.00;99.90;;;;;;5141481;27;20046;-83
2022/01/26 20:26:14;;;;;;;87.25;49.90;;;3.00;99.90;;;;;;5129315;27;20024;-82
2022/01/26 20:28:43;;;;;;;75.85;41.88;;;2.90;99.90;;;;;;5138443;27;20044;-82
2022/01/26 20:31:25;;;;;;;66.70;39.78;;;2.80;99.90;;;;;;5114620;27;20022;-81
2022/01/26 20:33:53;;;;;;;;;;;2.80;99.90;;;;;;5123242;27;20051;-83
2022/01/26 20:36:29;;;;;;;57.25;37.38;;;2.80;99.90;;;;;;5134827;27;19964;-83
2022/01/26 20:39:04;;;;;;;65.80;39.70;;;2.80;99.90;;;;;;5123901;27;20027;-82
2022/01/26 20:41:34;;;;;;;78.53;44.08;;;2.70;99.90;;;;;;5130503;27;20478;-83
2022/01/26 20:44:00;;;;;;;108.57;56.85;;;2.80;99.90;;;;;;5137555;27;20107;-84
2022/01/26 20:46:26;;;;;;;92.60;47.65;;;2.70;99.90;;;;;;5133068;27;20042;-81
2022/01/26 20:48:53;;;;;;;68.57;42.33;;;2.70;99.90;;;;;;5119621;27;20070;-81
2022/01/26 20:51:19;;;;;;;93.53;51.08;;;2.70;99.90;;;;;;5118229;27;20076;-85
2022/01/26 20:53:46;;;;;;;64.35;37.80;;;2.60;99.90;;;;;;5124129;27;20150;-84
2022/01/26 20:56:16;;;;;;;51.33;33.30;;;2.60;99.90;;;;;;5139636;27;20023;-83
2022/01/26 20:58:44;;;;;;;51.30;30.42;;;2.60;99.90;;;;;;5117819;27;20039;-82
2022/01/26 21:01:18;;;;;;;49.28;30.98;;;2.50;99.90;;;;;;5119985;27;20111;-83
2022/01/26 21:03:45;;;;;;;45.63;29.42;;;2.50;99.90;;;;;;5146440;27;20477;-82
2022/01/26 21:06:10;;;;;;;44.50;29.27;;;2.50;99.90;;;;;;5126267;27;20027;-83
2022/01/26 21:08:38;;;;;;;53.75;31.90;;;2.40;99.90;;;;;;5133606;27;20100;-82
2022/01/26 21:11:04;;;;;;;64.25;36.25;;;2.40;99.90;;;;;;5121330;27;20381;-83
2022/01/26 21:13:44;;;;;;;104.97;45.97;;;2.40;99.90;;;;;;5138954;27;20041;-82
2022/01/26 21:16:10;;;;;;;67.88;35.72;;;2.40;99.90;;;;;;5136147;27;20084;-83
2022/01/26 21:18:36;;;;;;;56.53;32.28;;;2.30;99.90;;;;;;5142118;27;20058;-83
2022/01/26 21:21:05;;;;;;;57.80;30.98;;;2.30;99.90;;;;;;5126105;27;20618;-82
2022/01/26 21:23:32;;;;;;;59.08;31.30;;;2.30;99.90;;;;;;5118213;27;20057;-82
2022/01/26 21:26:02;;;;;;;47.05;31.10;;;2.30;99.90;;;;;;5126975;27;20050;-80
2022/01/26 21:28:30;;;;;;;53.60;32.28;;;2.30;99.90;;;;;;5146771;27;20034;-81
2022/01/26 21:30:59;;;;;;;52.75;31.52;;;2.30;99.90;;;;;;5141206;27;20174;-81
2022/01/26 21:33:27;;;;;;;49.30;30.20;;;2.30;99.90;;;;;;5114728;27;20055;-83
2022/01/26 21:35:54;;;;;;;45.28;28.15;;;2.30;99.90;;;;;;5121020;27;20027;-83
2022/01/26 21:38:20;;;;;;;44.72;26.92;;;2.30;99.90;;;;;;5113554;27;20008;-87
2022/01/26 21:40:46;;;;;;;43.70;26.67;;;2.40;99.90;;;;;;5122698;28;20027;-84
2022/01/26 21:43:15;;;;;;;46.45;26.15;;;2.40;99.90;;;;;;5118624;28;20026;-85
2022/01/26 21:45:40;;;;;;;42.67;27.33;;;2.30;99.90;;;;;;5119197;28;20024;-87
2022/01/26 21:48:06;;;;;;;40.55;25.45;;;2.30;99.90;;;;;;5117816;27;20023;-85
2022/01/26 21:50:33;;;;;;;44.50;26.17;;;2.30;99.90;;;;;;5120905;28;20019;-80
2022/01/26 21:52:59;;;;;;;40.53;25.73;;;2.30;99.90;;;;;;5116979;27;20015;-85
2022/01/26 21:55:25;;;;;;;43.05;26.98;;;2.30;99.90;;;;;;5118788;27;20022;-83
2022/01/26 21:57:56;;;;;;;54.67;28.95;;;2.20;99.90;;;;;;5115238;28;20019;-82
2022/01/26 22:00:23;;;;;;;43.72;27.33;;;2.20;99.90;;;;;;5119335;28;20020;-83
2022/01/26 22:02:53;;;;;;;42.85;24.98;;;2.10;99.90;;;;;;5112593;27;20020;-81
2022/01/26 22:05:24;;;;;;;40.33;27.08;;;2.10;99.90;;;;;;5121444;27;20015;-80
2022/01/26 22:07:53;;;;;;;43.72;24.40;;;2.10;99.90;;;;;;5114758;28;20032;-84
2022/01/26 22:10:19;;;;;;;39.33;25.23;;;2.10;99.90;;;;;;5118162;28;20031;-83
2022/01/26 22:12:45;;;;;;;39.38;25.30;;;2.10;99.90;;;;;;5116504;28;20049;-84
2022/01/26 22:15:11;;;;;;;49.45;26.25;;;2.00;99.90;;;;;;5122408;28;20026;-84
2022/01/26 22:17:37;;;;;;;43.08;26.08;;;2.00;99.90;;;;;;5120880;28;20145;-85
2022/01/26 22:20:04;;;;;;;47.63;27.17;;;2.00;99.90;;;;;;5122084;27;20114;-84
2022/01/26 22:22:30;;;;;;;42.33;25.92;;;2.00;99.90;;;;;;5125184;27;20118;-86
2022/01/26 22:25:02;;;;;;;43.78;25.60;;;1.90;99.90;;;;;;5121262;27;20604;-84
2022/01/26 22:27:29;;;;;;;40.22;27.30;;;1.90;99.90;;;;;;5122666;27;20114;-83
2022/01/26 22:29:58;;;;;;;49.97;26.90;;;1.90;99.90;;;;;;5120624;27;20019;-81
2022/01/26 22:32:35;;;;;;;43.78;25.80;;;1.90;99.90;;;;;;5115965;27;20490;-81
2022/01/26 22:35:05;;;;;;;40.95;26.02;;;1.90;99.90;;;;;;5114717;27;20035;-83
2022/01/26 22:37:31;;;;;;;37.75;24.98;;;1.90;99.90;;;;;;5117809;27;20027;-83
2022/01/26 22:40:04;;;;;;;39.25;25.42;;;1.90;99.90;;;;;;5115393;27;20019;-80
2022/01/26 22:42:33;;;;;;;42.10;25.90;;;2.00;99.90;;;;;;5118937;27;20023;-82
2022/01/26 22:44:59;;;;;;;38.08;25.52;;;2.00;99.90;;;;;;5116320;27;20019;-85
2022/01/26 22:47:28;;;;;;;38.83;24.38;;;2.00;99.90;;;;;;5115442;27;20019;-84
2022/01/26 22:49:54;;;;;;;42.17;25.77;;;2.00;99.90;;;;;;5116361;27;20149;-82
2022/01/26 22:52:20;;;;;;;49.00;27.38;;;2.00;99.90;;;;;;5120010;27;20026;-84
2022/01/26 22:54:57;;;;;;;39.42;26.25;;;2.10;99.90;;;;;;5111456;27;20027;-83
2022/01/26 22:57:26;;;;;;;41.33;27.13;;;2.00;99.90;;;;;;5119614;27;20115;-80
2022/01/26 23:00:01;;;;;;;45.63;29.00;;;2.00;99.90;;;;;;5116341;27;20107;-83
2022/01/26 23:02:46;;;;;;;52.72;31.83;;;2.00;99.90;;;;;;5124949;27;20016;-84
2022/01/26 23:07:59;;;;;;;54.25;32.88;;;2.10;99.90;;;;;;5114689;27;20081;-83
2022/01/26 23:10:49;;;;;;;57.95;33.85;;;2.20;99.90;;;;;;5117117;27;20043;-82
2022/01/26 23:13:24;;;;;;;55.88;34.63;;;2.20;99.90;;;;;;5120801;27;20016;-83
2022/01/26 23:16:23;;;;;;;57.55;34.03;;;2.20;99.90;;;;;;5115804;27;20031;-82
2022/01/26 23:19:09;;;;;;;57.28;36.35;;;2.20;99.90;;;;;;5081640;27;20093;-83
2022/01/26 23:21:36;;;;;;;61.28;35.80;;;2.20;99.90;;;;;;5117448;27;20036;-81
2022/01/26 23:24:06;;;;;;;64.43;38.58;;;2.20;99.90;;;;;;5113595;27;20548;-82
2022/01/26 23:26:44;;;;;;;62.92;37.90;;;2.20;99.90;;;;;;5117564;27;20016;-82
2022/01/26 23:29:33;;;;;;;62.08;37.58;;;2.20;99.90;;;;;;5114734;27;20036;-83
